createdAt,value
2018-06-25T00:01:48.318Z,99095.45
2018-06-25T00:04:14.788Z,99104.10
2018-06-25T00:06:41.247Z,99110.55
2018-06-25T00:09:08.090Z,99105.57
2018-06-25T00:11:34.694Z,99101.14
2018-06-25T00:14:04.553Z,99098.34
2018-06-25T00:16:34.562Z,99104.25
2018-06-25T00:19:03.134Z,99102.47
2018-06-25T00:21:31.330Z,99096.41
2018-06-25T00:29:18.481Z,99083.64
2018-06-25T00:31:45.289Z,99079.20
2018-06-25T00:34:12.379Z,99075.91
2018-06-25T00:36:38.834Z,99080.38
2018-06-25T00:39:05.292Z,99088.53
2018-06-25T00:41:32.100Z,99086.50
2018-06-25T00:43:59.093Z,99082.06
2018-06-25T00:46:25.766Z,99096.25
2018-06-25T00:48:52.248Z,99092.90
2018-06-25T00:51:19.234Z,99094.63
2018-06-25T00:53:45.689Z,99094.13
2018-06-25T00:56:12.145Z,99090.71
2018-06-25T00:58:38.599Z,99095.84
2018-06-25T01:01:05.522Z,99090.16
2018-06-25T01:03:31.985Z,99090.00
2018-06-25T01:05:58.486Z,99102.77
2018-06-25T01:08:24.939Z,99098.40
2018-06-25T01:10:51.960Z,99081.91
2018-06-25T01:13:18.529Z,99089.23
2018-06-25T01:15:44.989Z,99088.38
2018-06-25T01:18:11.439Z,99087.91
2018-06-25T01:20:38.232Z,99083.39
2018-06-25T01:23:04.705Z,99084.87
2018-06-25T01:25:31.157Z,99088.63
2018-06-25T01:27:57.608Z,99084.70
2018-06-25T01:30:24.355Z,99081.70
2018-06-25T01:32:50.817Z,99078.09
2018-06-25T01:35:17.275Z,99085.82
2018-06-25T01:37:43.737Z,99083.48
2018-06-25T01:40:10.494Z,99087.66
2018-06-25T01:42:36.946Z,99087.76
2018-06-25T01:45:03.446Z,99075.91
2018-06-25T01:47:29.909Z,99079.66
2018-06-25T01:49:56.838Z,99080.03
2018-06-25T01:52:24.621Z,99084.50
2018-06-25T01:54:51.101Z,99081.14
2018-06-25T01:57:17.553Z,99090.30
2018-06-25T01:59:44.505Z,99094.36
2018-06-25T02:02:10.955Z,99091.11
2018-06-25T02:04:37.402Z,99082.67
2018-06-25T02:07:03.861Z,99079.72
2018-06-25T02:09:30.666Z,99079.50
2018-06-25T02:11:57.153Z,99076.71
2018-06-25T02:14:23.609Z,99083.23
2018-06-25T02:16:50.075Z,99084.70
2018-06-25T02:19:16.921Z,99081.50
2018-06-25T02:21:43.381Z,99089.13
2018-06-25T02:24:10.213Z,99085.14
2018-06-25T02:26:37.063Z,99095.46
2018-06-25T02:29:03.521Z,99090.09
2018-06-25T02:31:31.167Z,99090.16
2018-06-25T02:33:57.700Z,99091.48
2018-06-25T02:36:24.716Z,99095.68
2018-06-25T02:38:51.208Z,99096.22
2018-06-25T02:41:17.698Z,99093.81
2018-06-25T02:43:45.377Z,99090.77
2018-06-25T02:46:11.901Z,99082.05
2018-06-25T02:48:38.498Z,99095.13
2018-06-25T02:51:05.371Z,99097.06
2018-06-25T02:53:32.015Z,99094.21
2018-06-25T02:55:58.501Z,99092.69
2018-06-25T02:58:25.457Z,99091.14
2018-06-25T03:00:51.935Z,99094.09
2018-06-25T03:03:18.394Z,99091.29
2018-06-25T03:05:44.850Z,99098.36
2018-06-25T03:08:11.605Z,99096.11
2018-06-25T03:10:38.062Z,99095.63
2018-06-25T03:13:04.545Z,99099.53
2018-06-25T03:15:31.495Z,99109.33
2018-06-25T03:17:57.941Z,99108.64
2018-06-25T03:20:24.417Z,99112.34
2018-06-25T03:22:50.881Z,99114.53
2018-06-25T03:25:17.843Z,99100.86
2018-06-25T03:27:44.409Z,99107.15
2018-06-25T03:30:10.955Z,99112.89
2018-06-25T03:32:37.588Z,99115.30
2018-06-25T03:35:04.377Z,99107.00
2018-06-25T03:37:30.833Z,99113.67
2018-06-25T03:39:57.308Z,99110.56
2018-06-25T03:42:23.758Z,99111.48
2018-06-25T03:44:50.534Z,99113.06
2018-06-25T03:47:16.994Z,99115.97
2018-06-25T03:49:43.462Z,99110.22
2018-06-25T03:52:09.943Z,99116.34
2018-06-25T03:54:36.853Z,99122.63
2018-06-25T03:57:03.730Z,99135.56
2018-06-25T03:59:30.419Z,99129.35
2018-06-25T04:01:56.933Z,99123.15
2018-06-25T04:04:23.822Z,99131.59
2018-06-25T04:06:50.283Z,99136.28
2018-06-25T04:09:16.769Z,99133.58
2018-06-25T04:11:43.213Z,99132.26
2018-06-25T04:14:10.046Z,99140.56
2018-06-25T04:16:36.508Z,99136.85
2018-06-25T04:19:02.986Z,99134.61
2018-06-25T04:21:29.445Z,99137.25
2018-06-25T04:23:56.309Z,99136.39
2018-06-25T04:26:22.777Z,99145.50
2018-06-25T04:28:49.260Z,99136.91
2018-06-25T04:31:16.336Z,99145.19
2018-06-25T04:33:42.807Z,99146.11
2018-06-25T04:36:09.289Z,99152.11
2018-06-25T04:38:35.768Z,99147.20
2018-06-25T04:41:02.559Z,99141.45
2018-06-25T04:43:30.497Z,99145.27
2018-06-25T04:45:56.965Z,99147.91
2018-06-25T04:48:23.437Z,99146.22
2018-06-25T04:50:50.346Z,99157.72
2018-06-25T04:53:16.810Z,99149.64
2018-06-25T04:55:43.276Z,99154.98
2018-06-25T04:58:10.037Z,99157.13
2018-06-25T05:00:36.776Z,99164.23
2018-06-25T05:03:03.232Z,99169.66
2018-06-25T05:05:30.143Z,99164.84
2018-06-25T05:07:56.602Z,99170.93
2018-06-25T05:10:23.058Z,99168.45
2018-06-25T05:12:49.871Z,99173.19
2018-06-25T05:15:16.328Z,99171.20
2018-06-25T05:17:42.890Z,99170.05
2018-06-25T05:20:09.650Z,99174.95
2018-06-25T05:22:36.171Z,99180.23
2018-06-25T05:25:02.643Z,99180.69
2018-06-25T05:27:30.017Z,99172.39
2018-06-25T05:29:56.487Z,99177.59
2018-06-25T05:32:22.949Z,99175.66
2018-06-25T05:34:49.802Z,99175.66
2018-06-25T05:37:16.284Z,99180.40
2018-06-25T05:39:43.682Z,99180.59
2018-06-25T05:42:10.430Z,99180.09
2018-06-25T05:44:36.898Z,99178.24
2018-06-25T05:47:03.397Z,99177.70
2018-06-25T05:49:30.293Z,99180.35
2018-06-25T05:51:56.861Z,99178.66
2018-06-25T05:54:23.460Z,99181.80
2018-06-25T05:56:50.042Z,99186.55
2018-06-25T05:59:16.721Z,99190.05
2018-06-25T06:01:43.701Z,99190.73
2018-06-25T06:04:10.165Z,99190.42
2018-06-25T06:06:36.609Z,99195.16
2018-06-25T06:09:03.603Z,99196.03
2018-06-25T06:11:30.709Z,99197.23
2018-06-25T06:13:57.224Z,99200.34
2018-06-25T06:16:24.063Z,99195.05
2018-06-25T06:18:50.514Z,99205.17
2018-06-25T06:21:18.193Z,99197.78
2018-06-25T06:23:45.861Z,99203.48
2018-06-25T06:26:13.941Z,99211.42
2018-06-25T06:28:43.020Z,99211.81
2018-06-25T06:31:09.834Z,99205.73
2018-06-25T06:33:36.305Z,99209.14
2018-06-25T06:36:02.770Z,99207.57
2018-06-25T06:38:29.765Z,99210.06
2018-06-25T06:40:56.299Z,99209.10
2018-06-25T06:43:24.007Z,99211.42
2018-06-25T06:45:50.780Z,99210.60
2018-06-25T06:48:17.241Z,99214.08
2018-06-25T06:50:43.717Z,99225.95
2018-06-25T06:53:10.461Z,99219.72
2018-06-25T06:55:36.922Z,99222.44
2018-06-25T06:58:03.378Z,99224.76
2018-06-25T07:00:30.274Z,99236.31
2018-06-25T07:02:56.749Z,99238.91
2018-06-25T07:05:23.207Z,99238.53
2018-06-25T07:07:49.956Z,99231.74
2018-06-25T07:10:16.427Z,99235.11
2018-06-25T07:12:42.917Z,99240.09
2018-06-25T07:15:09.669Z,99246.33
2018-06-25T07:17:36.377Z,99247.41
2018-06-25T07:20:02.837Z,99250.45
2018-06-25T07:22:29.618Z,99245.61
2018-06-25T07:24:56.107Z,99246.80
2018-06-25T07:27:22.554Z,99249.27
2018-06-25T07:29:49.334Z,99243.41
2018-06-25T07:32:16.810Z,99239.41
2018-06-25T07:34:43.266Z,99244.84
2018-06-25T07:37:10.029Z,99243.34
2018-06-25T07:39:36.506Z,99238.93
2018-06-25T07:42:03.572Z,99248.48
2018-06-25T07:44:30.305Z,99247.64
2018-06-25T07:46:57.415Z,99250.84
2018-06-25T07:49:27.536Z,99243.78
2018-06-25T07:51:54.272Z,99254.53
2018-06-25T07:54:20.740Z,99246.94
2018-06-25T07:56:47.185Z,99248.64
2018-06-25T07:59:13.953Z,99260.42
2018-06-25T08:01:40.425Z,99252.38
2018-06-25T08:04:06.970Z,99253.19
2018-06-25T08:06:34.030Z,99252.77
2018-06-25T08:09:00.492Z,99263.29
2018-06-25T08:11:26.953Z,99260.19
2018-06-25T08:13:54.393Z,99254.58
2018-06-25T08:16:20.935Z,99259.16
2018-06-25T08:18:47.380Z,99258.41
2018-06-25T08:21:14.383Z,99267.05
2018-06-25T08:23:40.860Z,99266.94
2018-06-25T08:26:07.315Z,99271.67
2018-06-25T08:28:34.304Z,99277.82
2018-06-25T08:31:00.768Z,99284.94
2018-06-25T08:33:27.228Z,99285.20
2018-06-25T08:35:54.004Z,99284.31
2018-06-25T08:38:20.461Z,99284.97
2018-06-25T08:40:46.926Z,99286.06
2018-06-25T08:43:13.673Z,99294.89
2018-06-25T08:45:40.121Z,99291.64
2018-06-25T08:48:06.589Z,99290.29
2018-06-25T08:50:33.329Z,99300.16
2018-06-25T08:52:59.782Z,99289.83
2018-06-25T08:55:26.230Z,99293.86
2018-06-25T08:57:52.704Z,99292.08
2018-06-25T09:00:19.169Z,99289.83
2018-06-25T09:02:45.934Z,99295.11
2018-06-25T09:05:12.400Z,99294.52
2018-06-25T09:07:38.873Z,99295.50
2018-06-25T09:10:05.633Z,99294.06
2018-06-25T09:12:32.757Z,99284.17
2018-06-25T09:14:59.222Z,99290.83
2018-06-25T09:17:27.393Z,99290.97
2018-06-25T09:19:53.858Z,99286.39
2018-06-25T09:22:20.317Z,99283.22
2018-06-25T09:24:47.073Z,99289.89
2018-06-25T09:27:13.535Z,99293.97
2018-06-25T09:29:39.999Z,99286.73
2018-06-25T09:32:06.748Z,99290.89
2018-06-25T09:34:33.210Z,99296.59
2018-06-25T09:37:00.573Z,99311.84
2018-06-25T09:39:27.321Z,99300.16
2018-06-25T09:41:54.415Z,99293.99
2018-06-25T09:44:21.645Z,99298.19
2018-06-25T09:46:48.401Z,99302.72
2018-06-25T09:49:14.862Z,99300.84
2018-06-25T09:51:41.324Z,99300.77
2018-06-25T09:54:08.179Z,99300.79
2018-06-25T09:56:34.635Z,99301.12
2018-06-25T09:59:01.089Z,99306.31
2018-06-25T10:01:27.916Z,99304.55
2018-06-25T10:03:54.628Z,99302.55
2018-06-25T10:06:21.085Z,99308.84
2018-06-25T10:08:47.836Z,99309.20
2018-06-25T10:11:14.293Z,99315.95
2018-06-25T10:13:41.436Z,99315.95
2018-06-25T10:16:08.177Z,99313.41
2018-06-25T10:18:34.641Z,99316.72
2018-06-25T10:21:01.093Z,99309.44
2018-06-25T10:23:28.286Z,99314.03
2018-06-25T10:25:54.738Z,99307.05
2018-06-25T10:28:21.199Z,99303.25
2018-06-25T10:30:48.233Z,99302.45
2018-06-25T10:33:14.689Z,99301.38
2018-06-25T10:35:41.668Z,99301.39
2018-06-25T10:38:09.330Z,99300.64
2018-06-25T10:40:36.503Z,99295.64
2018-06-25T10:43:03.249Z,99302.16
2018-06-25T10:45:32.445Z,99306.73
2018-06-25T10:47:59.689Z,99306.64
2018-06-25T10:50:26.306Z,99305.70
2018-06-25T10:52:54.038Z,99312.27
2018-06-25T10:55:21.205Z,99314.61
2018-06-25T10:57:47.684Z,99313.30
2018-06-25T11:00:14.685Z,99317.19
2018-06-25T11:02:42.649Z,99321.86
2018-06-25T11:05:09.616Z,99319.75
2018-06-25T11:07:36.458Z,99326.12
2018-06-25T11:10:02.907Z,99323.77
2018-06-25T11:12:29.373Z,99323.19
2018-06-25T11:14:56.257Z,99319.36
2018-06-25T11:17:22.723Z,99316.45
2018-06-25T11:19:49.537Z,99323.32
2018-06-25T11:22:17.302Z,99318.98
2018-06-25T11:24:43.766Z,99315.84
2018-06-25T11:27:10.423Z,99314.64
2018-06-25T11:29:37.034Z,99307.57
2018-06-25T11:32:03.498Z,99308.27
2018-06-25T11:34:32.174Z,99314.33
2018-06-25T11:36:59.168Z,99309.19
2018-06-25T11:39:25.633Z,99301.13
2018-06-25T11:41:52.140Z,99304.47
2018-06-25T11:44:18.913Z,99301.55
2018-06-25T11:46:45.382Z,99302.23
2018-06-25T11:49:11.846Z,99304.69
2018-06-25T11:51:40.427Z,99303.30
2018-06-25T11:54:08.409Z,99304.45
2018-06-25T11:56:34.877Z,99294.00
2018-06-25T11:59:01.817Z,99294.14
2018-06-25T12:01:28.699Z,99288.61
2018-06-25T12:03:55.234Z,99284.45
2018-06-25T12:06:21.989Z,99287.25
2018-06-25T12:08:50.918Z,99298.06
2018-06-25T12:11:17.427Z,99285.39
2018-06-25T12:13:48.751Z,99293.23
2018-06-25T12:16:15.281Z,99307.64
2018-06-25T12:18:42.486Z,99305.42
2018-06-25T12:21:09.289Z,99307.56
2018-06-25T12:23:36.214Z,99307.66
2018-06-25T12:26:03.707Z,99313.58
2018-06-25T12:28:32.669Z,99308.03
2018-06-25T12:30:59.721Z,99310.23
2018-06-25T12:33:28.631Z,99306.03
2018-06-25T12:35:55.664Z,99314.50
2018-06-25T12:38:23.175Z,99310.73
2018-06-25T12:40:51.069Z,99315.89
2018-06-25T12:43:17.879Z,99310.05
2018-06-25T12:48:17.075Z,99298.98
2018-06-25T12:50:44.620Z,99305.10
2018-06-25T12:53:12.366Z,99304.20
2018-06-25T12:55:39.180Z,99303.58
2018-06-25T12:58:05.653Z,99299.56
2018-06-25T13:00:34.295Z,99315.52
2018-06-25T13:03:01.784Z,99301.77
2018-06-25T13:05:31.761Z,99301.14
2018-06-25T13:07:58.423Z,99298.58
2018-06-25T13:10:25.333Z,99293.98
2018-06-25T13:12:51.820Z,99302.73
2018-06-25T13:15:21.621Z,99295.41
2018-06-25T13:17:48.381Z,99299.05
2018-06-25T13:20:14.847Z,99300.77
2018-06-25T13:22:42.832Z,99297.50
2018-06-25T13:25:10.463Z,99300.28
2018-06-25T13:27:36.976Z,99300.06
2018-06-25T13:30:03.441Z,99303.70
2018-06-25T13:32:30.308Z,99295.78
2018-06-25T13:34:56.772Z,99294.09
2018-06-25T13:37:23.229Z,99290.28
2018-06-25T13:39:50.172Z,99287.83
2018-06-25T13:42:16.630Z,99284.30
2018-06-25T13:44:43.113Z,99276.20
2018-06-25T13:47:09.846Z,99276.03
2018-06-25T13:49:36.293Z,99274.52
2018-06-25T13:52:03.419Z,99277.06
2018-06-25T13:57:16.210Z,99283.48
2018-06-25T13:59:48.825Z,99287.00
2018-06-25T14:04:59.068Z,99289.35
2018-06-25T14:07:26.423Z,99274.92
2018-06-25T14:09:56.539Z,99276.64
2018-06-25T14:12:23.306Z,99274.03
2018-06-25T14:14:50.453Z,99271.62
2018-06-25T14:17:16.917Z,99268.37
2018-06-25T14:19:47.378Z,99278.33
2018-06-25T14:22:13.838Z,99270.83
2018-06-25T14:24:40.422Z,99274.70
2018-06-25T14:27:07.309Z,99279.69
2018-06-25T14:29:33.767Z,99268.63
2018-06-25T14:32:00.742Z,99265.47
2018-06-25T14:34:27.515Z,99274.78
2018-06-25T14:36:53.977Z,99270.23
2018-06-25T14:39:20.457Z,99266.99
2018-06-25T14:41:48.710Z,99264.73
2018-06-25T14:44:15.188Z,99263.88
2018-06-25T14:46:41.643Z,99263.48
2018-06-25T14:49:09.365Z,99261.27
2018-06-25T14:51:35.817Z,99250.05
2018-06-25T14:54:04.192Z,99265.53
2018-06-25T14:56:30.956Z,99257.46
2018-06-25T14:58:57.424Z,99247.06
2018-06-25T15:01:24.520Z,99252.33
2018-06-25T15:03:51.915Z,99265.95
2018-06-25T15:06:18.404Z,99253.41
2018-06-25T15:08:53.385Z,99247.97
2018-06-25T15:11:21.206Z,99249.38
2018-06-25T15:13:49.105Z,99251.94
2018-06-25T15:16:15.564Z,99260.13
2018-06-25T15:18:42.323Z,99258.03
2018-06-25T15:21:08.776Z,99256.84
2018-06-25T15:23:35.245Z,99258.88
2018-06-25T15:26:02.076Z,99248.22
2018-06-25T15:28:28.543Z,99257.25
2018-06-25T15:30:55.272Z,99255.95
2018-06-25T15:33:24.435Z,99249.69
2018-06-25T15:35:51.693Z,99254.60
2018-06-25T15:38:18.142Z,99246.98
2018-06-25T15:40:44.935Z,99251.96
2018-06-25T15:43:11.386Z,99245.80
2018-06-25T15:45:37.861Z,99250.47
2018-06-25T15:48:04.790Z,99246.02
2018-06-25T15:50:31.248Z,99248.94
2018-06-25T15:52:58.381Z,99243.01
2018-06-25T15:55:25.955Z,99242.19
2018-06-25T15:57:52.412Z,99239.87
2018-06-25T16:00:18.868Z,99247.22
2018-06-25T16:02:46.274Z,99240.05
2018-06-25T16:05:12.725Z,99247.50
2018-06-25T16:07:39.446Z,99236.52
2018-06-25T16:10:06.191Z,99235.16
2018-06-25T16:12:32.637Z,99227.39
2018-06-25T16:15:00.574Z,99235.55
2018-06-25T16:17:27.336Z,99232.39
2018-06-25T16:19:53.845Z,99227.48
2018-06-25T16:22:21.321Z,99223.33
2018-06-25T16:24:48.337Z,99221.48
2018-06-25T16:27:14.811Z,99218.97
2018-06-25T16:29:41.285Z,99217.37
2018-06-25T16:32:08.028Z,99223.02
2018-06-25T16:34:37.176Z,99222.06
2018-06-25T16:37:04.572Z,99217.20
2018-06-25T16:39:34.840Z,99223.05
2018-06-25T16:42:01.321Z,99224.72
2018-06-25T16:44:27.782Z,99225.57
2018-06-25T16:46:54.521Z,99221.13
2018-06-25T16:49:20.983Z,99231.17
2018-06-25T16:51:47.441Z,99222.87
2018-06-25T16:54:14.196Z,99227.59
2018-06-25T16:56:40.651Z,99220.62
2018-06-25T16:59:07.119Z,99217.97
2018-06-25T17:01:35.122Z,99235.78
2018-06-25T17:04:01.588Z,99228.47
2018-06-25T17:06:28.053Z,99219.98
2018-06-25T17:08:55.423Z,99230.90
2018-06-25T17:11:23.079Z,99220.61
2018-06-25T17:13:49.568Z,99227.16
2018-06-25T17:16:16.346Z,99231.73
2018-06-25T17:18:43.794Z,99230.75
2018-06-25T17:21:10.569Z,99227.56
2018-06-25T17:23:37.385Z,99224.27
2018-06-25T17:26:03.996Z,99227.27
2018-06-25T17:28:30.473Z,99221.56
2018-06-25T17:30:58.323Z,99224.27
2018-06-25T17:33:24.851Z,99225.78
2018-06-25T17:35:51.401Z,99220.05
2018-06-25T17:38:18.237Z,99212.04
2018-06-25T17:40:44.689Z,99209.53
2018-06-25T17:43:11.453Z,99202.22
2018-06-25T17:45:38.313Z,99205.52
2018-06-25T17:48:04.992Z,99198.36
2018-06-25T17:50:32.447Z,99197.38
2018-06-25T17:53:00.005Z,99204.09
2018-06-25T17:55:27.251Z,99202.82
2018-06-25T17:57:54.178Z,99196.68
2018-06-25T18:00:25.463Z,99197.98
2018-06-25T18:02:51.925Z,99203.31
2018-06-25T18:05:18.544Z,99204.31
2018-06-25T18:07:45.360Z,99192.56
2018-06-25T18:10:12.073Z,99197.02
2018-06-25T18:12:39.160Z,99195.33
2018-06-25T18:15:06.198Z,99198.28
